createdAt,value
2023-04-20T00:01:44.408Z,7.69
2023-04-20T00:04:32.229Z,7.59
2023-04-20T00:11:13.657Z,7.49
2023-04-20T00:14:01.808Z,7.49
2023-04-20T00:16:49.702Z,7.34
2023-04-20T00:19:39.622Z,7.25
2023-04-20T00:22:36.159Z,7.23
2023-04-20T00:25:23.854Z,6.94
2023-04-20T00:28:11.542Z,7.04
2023-04-20T00:31:01.465Z,7.13
2023-04-20T00:33:49.523Z,7.02
2023-04-20T00:36:37.192Z,7.18
2023-04-20T00:39:24.885Z,7.07
2023-04-20T00:42:12.558Z,7.01
2023-04-20T00:45:00.204Z,6.99
2023-04-20T00:47:49.174Z,6.54
2023-04-20T00:50:38.622Z,6.95
2023-04-20T00:53:27.803Z,6.88
2023-04-20T00:56:16.973Z,6.68
2023-04-20T00:59:04.912Z,6.69
2023-04-20T01:01:52.676Z,6.64
2023-04-20T01:04:40.800Z,6.51
2023-04-20T01:07:30.322Z,6.65
2023-04-20T01:10:17.977Z,6.71
2023-04-20T01:13:05.699Z,6.53
2023-04-20T01:15:54.535Z,6.54
2023-04-20T01:18:44.728Z,6.32
2023-04-20T01:21:32.695Z,6.44
2023-04-20T01:24:20.509Z,6.36
2023-04-20T01:27:08.160Z,6.16
2023-04-20T01:29:55.934Z,6.41
2023-04-20T01:32:44.648Z,6.36
2023-04-20T01:35:32.383Z,6.51
2023-04-20T01:38:23.589Z,6.48
2023-04-20T01:41:11.558Z,6.17
2023-04-20T01:43:59.190Z,6.24
2023-04-20T01:46:46.859Z,6.49
2023-04-20T01:49:36.793Z,6.52
2023-04-20T01:52:24.412Z,6.51
2023-04-20T01:55:12.106Z,6.53
2023-04-20T01:57:59.741Z,6.46
2023-04-20T02:00:47.645Z,6.39
2023-04-20T02:03:35.565Z,6.44
2023-04-20T02:06:23.394Z,6.38
2023-04-20T02:09:11.196Z,6.29
2023-04-20T02:11:58.842Z,6.17
2023-04-20T02:14:46.546Z,6.39
2023-04-20T02:17:37.035Z,6.50
2023-04-20T02:20:24.935Z,6.45
2023-04-20T02:23:13.106Z,6.30
2023-04-20T02:26:01.047Z,6.27
2023-04-20T02:28:48.762Z,6.20
2023-04-20T02:31:36.582Z,6.16
2023-04-20T02:34:25.056Z,6.28
2023-04-20T02:37:12.760Z,6.34
2023-04-20T02:40:02.881Z,6.33
2023-04-20T02:42:50.652Z,6.36
2023-04-20T02:45:38.548Z,6.28
2023-04-20T02:48:26.925Z,6.44
2023-04-20T02:51:15.398Z,6.45
2023-04-20T02:54:06.207Z,6.49
2023-04-20T02:56:54.001Z,6.41
2023-04-20T02:59:42.358Z,6.43
2023-04-20T03:02:37.898Z,6.44
2023-04-20T03:05:25.658Z,6.38
2023-04-20T03:08:13.669Z,6.38
2023-04-20T03:11:02.528Z,6.37
2023-04-20T03:13:50.285Z,6.44
2023-04-20T03:16:39.036Z,6.43
2023-04-20T03:19:28.020Z,6.34
2023-04-20T03:22:21.446Z,6.52
2023-04-20T03:25:13.654Z,6.57
2023-04-20T03:28:20.705Z,6.73
2023-04-20T03:31:08.647Z,6.67
2023-04-20T03:33:56.353Z,6.68
2023-04-20T03:36:44.160Z,6.78
2023-04-20T03:39:31.941Z,6.90
2023-04-20T03:42:19.768Z,6.98
2023-04-20T03:45:09.647Z,7.03
2023-04-20T03:47:57.437Z,7.07
2023-04-20T03:50:46.297Z,7.20
2023-04-20T03:53:34.249Z,7.12
2023-04-20T03:56:22.794Z,7.66
2023-04-20T03:59:12.483Z,8.06
2023-04-20T04:02:02.910Z,8.28
2023-04-20T04:04:50.860Z,8.44
2023-04-20T04:07:38.625Z,8.46
2023-04-20T04:10:27.073Z,8.55
2023-04-20T04:13:14.918Z,8.48
2023-04-20T04:16:02.912Z,8.47
2023-04-20T04:18:50.929Z,8.51
2023-04-20T04:21:39.938Z,8.51
2023-04-20T04:24:28.283Z,8.56
2023-04-20T04:27:30.027Z,8.61
2023-04-20T04:30:18.165Z,8.72
2023-04-20T04:33:06.062Z,8.72
2023-04-20T04:35:57.772Z,8.76
2023-04-20T04:38:46.360Z,8.77
2023-04-20T04:41:34.253Z,8.85
2023-04-20T04:44:40.546Z,8.94
2023-04-20T04:47:35.444Z,8.94
2023-04-20T04:50:23.706Z,9.16
2023-04-20T04:53:12.597Z,9.28
2023-04-20T04:56:00.329Z,9.41
2023-04-20T04:58:48.006Z,9.64
2023-04-20T05:01:35.874Z,9.76
2023-04-20T05:04:23.689Z,9.94
2023-04-20T05:07:11.429Z,9.97
2023-04-20T05:09:59.094Z,10.10
2023-04-20T05:12:47.122Z,10.13
2023-04-20T05:15:34.875Z,10.35
2023-04-20T05:18:22.551Z,10.47
2023-04-20T05:21:10.326Z,10.51
2023-04-20T05:23:58.084Z,10.52
2023-04-20T05:26:48.744Z,10.73
2023-04-20T05:29:36.428Z,10.82
2023-04-20T05:32:24.130Z,11.08
2023-04-20T05:35:11.874Z,11.27
2023-04-20T05:38:02.702Z,12.03
2023-04-20T05:40:51.217Z,12.56
2023-04-20T05:43:38.829Z,12.87
2023-04-20T05:46:26.625Z,13.49
2023-04-20T05:49:14.534Z,13.93
2023-04-20T05:52:02.410Z,13.58
2023-04-20T05:54:50.104Z,13.53
2023-04-20T05:57:43.083Z,14.06
2023-04-20T06:00:30.687Z,14.13
2023-04-20T06:03:18.789Z,13.80
2023-04-20T06:06:07.150Z,13.39
2023-04-20T06:08:55.332Z,13.21
2023-04-20T06:11:42.955Z,13.06
2023-04-20T06:14:30.658Z,13.24
2023-04-20T06:17:18.395Z,13.69
2023-04-20T06:20:07.998Z,13.78
2023-04-20T06:22:55.785Z,13.90
2023-04-20T06:25:44.274Z,13.78
2023-04-20T06:28:31.960Z,13.58
2023-04-20T06:31:20.400Z,14.57
2023-04-20T06:34:40.241Z,15.27
2023-04-20T06:37:30.094Z,15.72
2023-04-20T06:40:17.870Z,16.03
2023-04-20T06:43:05.530Z,15.84
2023-04-20T06:45:53.317Z,15.82
2023-04-20T06:48:40.974Z,15.42
2023-04-20T06:51:29.457Z,15.36
2023-04-20T06:54:17.068Z,15.30
2023-04-20T06:57:05.848Z,15.19
2023-04-20T06:59:53.516Z,15.81
2023-04-20T07:02:49.497Z,16.31
2023-04-20T07:05:37.369Z,16.66
2023-04-20T07:08:25.141Z,16.42
2023-04-20T07:11:12.773Z,17.23
2023-04-20T07:14:11.227Z,17.10
2023-04-20T07:16:58.833Z,16.93
2023-04-20T07:19:49.306Z,16.94
2023-04-20T07:22:38.366Z,17.46
2023-04-20T07:25:26.246Z,17.30
2023-04-20T07:28:14.150Z,17.61
2023-04-20T07:31:01.751Z,17.16
2023-04-20T07:33:49.377Z,17.41
2023-04-20T07:36:39.313Z,17.51
2023-04-20T07:39:30.619Z,16.77
2023-04-20T07:42:21.846Z,17.16
2023-04-20T07:45:11.455Z,17.88
2023-04-20T07:48:01.761Z,18.46
2023-04-20T07:50:50.765Z,18.25
2023-04-20T07:53:38.455Z,18.14
2023-04-20T07:56:26.294Z,18.17
2023-04-20T07:59:13.997Z,18.56
2023-04-20T08:02:02.693Z,18.90
2023-04-20T08:04:50.790Z,18.90
2023-04-20T08:07:44.088Z,18.66
2023-04-20T08:10:31.842Z,19.01
2023-04-20T08:13:19.528Z,19.03
2023-04-20T08:16:09.805Z,19.62
2023-04-20T08:18:57.442Z,19.09
2023-04-20T08:21:45.285Z,19.53
2023-04-20T08:24:35.614Z,19.74
2023-04-20T08:27:23.578Z,19.71
2023-04-20T08:30:17.070Z,20.17
2023-04-20T08:33:06.989Z,19.75
2023-04-20T08:35:54.775Z,19.49
2023-04-20T08:38:42.377Z,19.07
2023-04-20T08:41:33.683Z,18.69
2023-04-20T08:44:21.952Z,18.68
2023-04-20T08:47:11.933Z,19.05
2023-04-20T08:50:01.144Z,18.81
2023-04-20T08:52:48.797Z,18.56
2023-04-20T08:55:36.648Z,18.76
2023-04-20T08:58:34.673Z,19.66
2023-04-20T09:01:34.663Z,19.72
2023-04-20T09:04:27.150Z,19.85
2023-04-20T09:07:20.430Z,20.13
2023-04-20T09:10:15.476Z,20.08
2023-04-20T09:13:06.322Z,20.98
2023-04-20T09:15:53.979Z,19.52
2023-04-20T09:18:55.157Z,18.89
2023-04-20T09:21:51.098Z,18.73
2023-04-20T09:24:39.966Z,18.70
2023-04-20T09:27:29.001Z,18.65
2023-04-20T09:30:16.659Z,20.29
2023-04-20T09:33:08.706Z,20.12
2023-04-20T09:36:04.524Z,20.41
2023-04-20T09:39:06.607Z,19.67
2023-04-20T09:41:55.305Z,19.34
2023-04-20T09:44:46.317Z,19.85
2023-04-20T09:47:37.348Z,20.68
2023-04-20T09:50:34.975Z,20.44
2023-04-20T09:53:31.896Z,20.76
2023-04-20T09:56:22.931Z,20.33
2023-04-20T09:59:14.086Z,20.00
2023-04-20T10:02:01.926Z,20.45
2023-04-20T10:04:59.765Z,20.40
2023-04-20T10:07:47.513Z,20.27
2023-04-20T10:10:46.842Z,19.73
2023-04-20T10:13:42.720Z,19.71
2023-04-20T10:16:30.827Z,20.45
2023-04-20T10:19:21.456Z,20.37
2023-04-20T10:22:27.022Z,19.97
2023-04-20T10:25:21.086Z,19.91
2023-04-20T10:28:10.834Z,20.91
2023-04-20T10:30:58.766Z,21.05
2023-04-20T10:34:04.920Z,21.63
2023-04-20T10:36:52.871Z,21.45
2023-04-20T10:39:47.721Z,21.36
2023-04-20T10:42:46.973Z,21.77
2023-04-20T10:45:36.614Z,21.70
2023-04-20T10:48:24.433Z,21.14
2023-04-20T10:51:12.154Z,21.04
2023-04-20T10:54:03.950Z,20.43
2023-04-20T10:56:54.232Z,21.02
2023-04-20T10:59:42.429Z,20.73
2023-04-20T11:02:31.450Z,20.02
2023-04-20T11:05:21.975Z,20.61
2023-04-20T11:08:09.753Z,21.90
2023-04-20T11:10:59.908Z,22.00
2023-04-20T11:13:48.733Z,22.32
2023-04-20T11:16:49.584Z,21.69
2023-04-20T11:19:39.346Z,22.00
2023-04-20T11:22:27.037Z,22.51
2023-04-20T11:25:14.779Z,20.87
2023-04-20T11:28:08.255Z,20.92
2023-04-20T11:30:56.081Z,21.44
2023-04-20T11:33:44.862Z,21.96
2023-04-20T11:36:32.633Z,22.13
2023-04-20T11:39:27.604Z,22.33
2023-04-20T11:42:15.262Z,21.43
2023-04-20T11:45:06.876Z,22.17
2023-04-20T11:47:58.377Z,22.82
2023-04-20T11:50:47.145Z,22.12
2023-04-20T11:53:35.080Z,21.65
2023-04-20T11:56:23.112Z,21.75
2023-04-20T11:59:12.461Z,22.09
2023-04-20T12:02:04.461Z,21.81
2023-04-20T12:04:52.489Z,21.78
2023-04-20T12:07:40.364Z,22.00
2023-04-20T12:10:28.284Z,22.11
2023-04-20T12:13:16.367Z,22.26
2023-04-20T12:16:04.065Z,22.36
2023-04-20T12:18:52.124Z,22.12
2023-04-20T12:21:39.630Z,22.31
2023-04-20T12:24:29.723Z,21.93
2023-04-20T12:27:17.432Z,22.18
2023-04-20T12:30:05.863Z,22.41
2023-04-20T12:32:53.528Z,22.18
2023-04-20T12:35:43.842Z,22.63
2023-04-20T12:38:33.799Z,22.70
2023-04-20T12:41:23.081Z,22.43
2023-04-20T12:44:11.546Z,22.39
2023-04-20T12:46:59.576Z,21.60
2023-04-20T12:49:47.319Z,21.36
2023-04-20T12:52:37.282Z,21.67
2023-04-20T12:55:26.427Z,21.31
2023-04-20T12:58:16.343Z,21.18
2023-04-20T13:01:04.100Z,21.66
2023-04-20T13:03:55.086Z,21.67
2023-04-20T13:06:43.170Z,21.75
2023-04-20T13:09:31.044Z,22.10
2023-04-20T13:12:19.286Z,22.10
2023-04-20T13:15:11.373Z,21.92
2023-04-20T13:17:59.042Z,22.20
2023-04-20T13:20:46.756Z,21.67
2023-04-20T13:23:34.582Z,22.06
2023-04-20T13:26:22.926Z,22.01
2023-04-20T13:29:10.553Z,21.80
2023-04-20T13:31:58.430Z,22.24
2023-04-20T13:34:46.392Z,21.61
2023-04-20T13:37:37.953Z,21.56
2023-04-20T13:40:26.695Z,21.48
2023-04-20T13:43:14.691Z,21.23
2023-04-20T13:46:02.395Z,20.98
2023-04-20T13:48:50.192Z,21.37
2023-04-20T13:51:42.026Z,21.41
2023-04-20T13:54:29.571Z,22.17
2023-04-20T13:57:17.259Z,22.67
2023-04-20T14:00:05.755Z,22.37
2023-04-20T14:02:53.577Z,22.31
2023-04-20T14:05:42.150Z,22.27
2023-04-20T14:08:32.361Z,22.60
2023-04-20T14:11:20.075Z,22.99
2023-04-20T14:14:09.975Z,22.68
2023-04-20T14:16:57.738Z,22.94
2023-04-20T14:19:45.361Z,23.27
2023-04-20T14:22:36.207Z,22.58
2023-04-20T14:25:23.935Z,22.84
2023-04-20T14:28:11.704Z,22.73
2023-04-20T14:31:01.004Z,22.65
2023-04-20T14:33:48.819Z,22.53
2023-04-20T14:36:36.442Z,22.56
2023-04-20T14:39:24.240Z,22.38
2023-04-20T14:42:13.324Z,22.06
2023-04-20T14:45:01.073Z,22.12
2023-04-20T14:47:58.425Z,21.71
2023-04-20T14:50:46.182Z,21.23
2023-04-20T14:53:38.515Z,20.97
2023-04-20T14:56:26.416Z,20.85
2023-04-20T14:59:28.346Z,20.80
2023-04-20T15:02:16.431Z,20.82
2023-04-20T15:05:09.920Z,20.53
2023-04-20T15:08:00.641Z,20.65
2023-04-20T15:10:48.320Z,20.84
2023-04-20T15:13:36.143Z,20.49
2023-04-20T15:16:26.437Z,20.34
2023-04-20T15:19:14.406Z,20.34
2023-04-20T15:22:02.254Z,20.57
2023-04-20T15:24:55.065Z,20.58
2023-04-20T15:30:33.217Z,20.33
2023-04-20T15:33:24.994Z,20.16
2023-04-20T15:36:20.755Z,20.18
2023-04-20T15:39:11.303Z,19.46
2023-04-20T15:42:06.463Z,19.33
2023-04-20T15:44:54.376Z,19.01
2023-04-20T15:47:42.262Z,19.14
2023-04-20T15:50:35.545Z,18.89
2023-04-20T15:53:23.382Z,18.92
2023-04-20T15:56:11.068Z,18.45
2023-04-20T15:58:58.880Z,18.40
2023-04-20T16:01:49.700Z,18.28
2023-04-20T16:04:47.980Z,18.27
2023-04-20T16:07:35.954Z,18.39
2023-04-20T16:10:24.010Z,18.19
2023-04-20T16:13:15.031Z,17.95
2023-04-20T16:16:03.412Z,17.88
2023-04-20T16:18:58.366Z,17.92
2023-04-20T16:21:51.483Z,17.86
2023-04-20T16:24:42.553Z,17.70
2023-04-20T16:27:49.080Z,17.76
2023-04-20T16:30:44.779Z,17.75
2023-04-20T16:33:33.155Z,17.66
2023-04-20T16:36:21.024Z,17.61
2023-04-20T16:39:10.451Z,17.00
2023-04-20T16:42:00.572Z,17.24
2023-04-20T16:44:48.343Z,16.97
2023-04-20T16:47:36.258Z,16.69
2023-04-20T16:50:25.852Z,16.75
2023-04-20T16:53:13.467Z,16.47
2023-04-20T16:56:01.275Z,16.19
2023-04-20T16:58:48.895Z,16.11
2023-04-20T17:01:36.701Z,15.94
2023-04-20T17:04:24.444Z,15.91
2023-04-20T17:07:17.958Z,15.62
2023-04-20T17:10:06.304Z,15.57
2023-04-20T17:12:59.660Z,15.42
2023-04-20T17:15:57.562Z,15.20
2023-04-20T17:18:45.468Z,14.83
2023-04-20T17:21:40.642Z,14.95
2023-04-20T17:24:28.450Z,14.64
2023-04-20T17:27:16.331Z,14.57
2023-04-20T17:30:05.373Z,14.50
2023-04-20T17:32:53.584Z,14.23
2023-04-20T17:35:41.471Z,14.31
2023-04-20T17:38:29.092Z,13.97
2023-04-20T17:41:16.921Z,13.97
2023-04-20T17:44:04.637Z,13.85
2023-04-20T17:46:53.414Z,13.65
2023-04-20T17:49:44.787Z,13.66
2023-04-20T17:52:32.994Z,13.44
2023-04-20T17:55:23.022Z,13.54
2023-04-20T17:58:10.854Z,13.29
2023-04-20T18:00:58.510Z,13.41
2023-04-20T18:03:48.516Z,13.25
2023-04-20T18:06:36.293Z,13.22
2023-04-20T18:09:24.175Z,13.29
2023-04-20T18:12:11.908Z,13.00
2023-04-20T18:14:59.773Z,13.09
2023-04-20T18:17:47.494Z,12.89
2023-04-20T18:20:35.338Z,12.87
2023-04-20T18:23:22.955Z,12.74
2023-04-20T18:26:17.485Z,12.84
2023-04-20T18:29:05.508Z,12.73
2023-04-20T18:31:55.207Z,12.75
2023-04-20T18:34:42.781Z,12.42
2023-04-20T18:37:30.800Z,12.51
2023-04-20T18:40:18.885Z,12.52
2023-04-20T18:43:07.019Z,12.40
2023-04-20T18:45:54.655Z,12.37
2023-04-20T18:48:42.452Z,12.34
2023-04-20T18:51:30.129Z,12.39
2023-04-20T18:54:18.220Z,12.21
2023-04-20T18:57:07.348Z,12.23
2023-04-20T18:59:58.329Z,12.18
2023-04-20T19:02:46.152Z,12.18
2023-04-20T19:05:33.898Z,12.14
2023-04-20T19:08:22.577Z,11.59
2023-04-20T19:11:10.426Z,12.10
2023-04-20T19:13:58.144Z,12.06
2023-04-20T19:16:45.992Z,12.18
2023-04-20T19:19:33.867Z,12.14
2023-04-20T19:22:21.652Z,12.20
2023-04-20T19:25:09.719Z,12.03
2023-04-20T19:27:59.141Z,12.16
2023-04-20T19:30:47.136Z,12.15
2023-04-20T19:33:35.914Z,11.90
2023-04-20T19:36:23.568Z,11.93
2023-04-20T19:39:11.776Z,12.06
2023-04-20T19:41:59.411Z,12.33
2023-04-20T19:44:47.559Z,12.12
2023-04-20T19:47:36.075Z,12.31
2023-04-20T19:50:23.882Z,12.29
2023-04-20T19:53:11.406Z,12.40
2023-04-20T19:55:59.243Z,12.40
2023-04-20T19:58:47.322Z,12.38
2023-04-20T20:01:35.029Z,12.49
2023-04-20T20:04:22.874Z,12.44
2023-04-20T20:07:11.136Z,12.50
2023-04-20T20:09:58.896Z,12.48
2023-04-20T20:12:52.587Z,12.44
2023-04-20T20:15:40.382Z,12.41
2023-04-20T20:18:28.115Z,12.53
2023-04-20T20:21:16.159Z,12.61
2023-04-20T20:24:04.070Z,12.66
2023-04-20T20:26:54.405Z,12.80
2023-04-20T20:29:42.081Z,12.34
2023-04-20T20:32:29.757Z,12.57
2023-04-20T20:35:17.660Z,12.45
2023-04-20T20:38:06.918Z,12.05
2023-04-20T20:40:55.309Z,12.29
2023-04-20T20:43:43.005Z,12.12
2023-04-20T20:46:31.939Z,11.96
2023-04-20T20:49:19.860Z,12.05
2023-04-20T20:52:07.860Z,11.89
2023-04-20T20:54:55.618Z,11.81
2023-04-20T20:57:43.372Z,11.83
2023-04-20T21:00:31.121Z,11.75
2023-04-20T21:03:19.236Z,11.49
2023-04-20T21:06:07.280Z,11.69
2023-04-20T21:08:55.258Z,11.36
2023-04-20T21:11:56.636Z,11.44
2023-04-20T21:16:53.887Z,10.82
2023-04-20T21:18:05.838Z,11.24
2023-04-20T21:20:53.752Z,11.47
2023-04-20T21:23:41.380Z,11.22
2023-04-20T21:26:35.031Z,11.32
2023-04-20T21:29:22.645Z,11.27
2023-04-20T21:32:10.724Z,11.04
2023-04-20T21:34:58.400Z,11.17
2023-04-20T21:37:46.237Z,11.01
2023-04-20T21:40:34.414Z,10.72
2023-04-20T21:43:22.098Z,10.72
2023-04-20T21:46:14.578Z,10.42
2023-04-20T21:49:02.872Z,10.66
2023-04-20T21:51:50.526Z,10.70
2023-04-20T21:54:41.064Z,10.74
2023-04-20T21:57:28.702Z,10.64
2023-04-20T22:00:18.300Z,10.47
2023-04-20T22:03:06.195Z,10.07
2023-04-20T22:05:53.992Z,10.26
2023-04-20T22:08:42.149Z,10.13
2023-04-20T22:11:30.359Z,10.18
2023-04-20T22:14:18.133Z,10.00
2023-04-20T22:17:05.907Z,9.93
2023-04-20T22:19:53.479Z,9.84
2023-04-20T22:22:41.575Z,9.85
2023-04-20T22:25:29.115Z,9.77
2023-04-20T22:28:17.014Z,9.65
2023-04-20T22:31:04.841Z,9.50
2023-04-20T22:33:52.635Z,9.48
2023-04-20T22:36:41.348Z,9.57
2023-04-20T22:39:29.091Z,9.65
2023-04-20T22:42:16.694Z,9.62
2023-04-20T22:45:05.012Z,9.56
2023-04-20T22:47:52.805Z,9.52
2023-04-20T22:50:41.522Z,9.50
2023-04-20T22:53:31.802Z,9.38
2023-04-20T22:56:19.585Z,9.41
2023-04-20T22:59:07.271Z,9.33
2023-04-20T23:01:55.096Z,9.26
2023-04-20T23:04:44.507Z,9.27
2023-04-20T23:07:33.355Z,9.40
2023-04-20T23:10:21.207Z,9.31
2023-04-20T23:13:08.943Z,9.21
2023-04-20T23:15:56.624Z,9.10
2023-04-20T23:18:44.410Z,9.06
2023-04-20T23:21:33.054Z,9.05
2023-04-20T23:24:20.826Z,9.23
2023-04-20T23:27:08.354Z,9.01
2023-04-20T23:29:56.339Z,9.13
2023-04-20T23:32:44.554Z,9.18
2023-04-20T23:35:32.543Z,8.66
2023-04-20T23:38:22.471Z,9.27
2023-04-20T23:41:11.731Z,9.25
2023-04-20T23:43:59.321Z,9.20
2023-04-20T23:46:47.096Z,9.24
2023-04-20T23:49:34.783Z,9.14
2023-04-20T23:52:22.866Z,9.05
2023-04-20T23:55:10.847Z,8.94
2023-04-20T23:57:58.694Z,9.04
